createdAt,value
2023-02-22T00:01:21.776Z,7.74
2023-02-22T00:06:20.915Z,7.74
2023-02-22T00:11:18.777Z,7.71
2023-02-22T00:16:20.400Z,7.61
2023-02-22T00:21:18.394Z,7.61
2023-02-22T00:26:19.577Z,7.53
2023-02-22T00:31:16.627Z,7.53
2023-02-22T00:36:14.203Z,7.51
2023-02-22T00:41:12.252Z,7.54
2023-02-22T00:46:08.723Z,7.47
2023-02-22T00:51:05.354Z,7.51
2023-02-22T00:56:01.782Z,7.51
2023-02-22T01:00:58.290Z,7.54
2023-02-22T01:05:54.682Z,7.51
2023-02-22T01:10:52.517Z,7.50
2023-02-22T01:15:48.958Z,7.49
2023-02-22T01:20:47.865Z,7.46
2023-02-22T01:25:44.560Z,7.35
2023-02-22T01:30:41.204Z,7.37
2023-02-22T01:35:41.819Z,7.47
2023-02-22T01:40:41.925Z,7.43
2023-02-22T01:45:43.971Z,7.41
2023-02-22T01:50:44.220Z,7.36
2023-02-22T01:55:41.753Z,7.34
2023-02-22T02:00:39.913Z,7.40
2023-02-22T02:05:37.152Z,7.47
2023-02-22T02:10:34.907Z,7.49
2023-02-22T02:15:33.872Z,7.50
2023-02-22T02:20:39.027Z,7.53
2023-02-22T02:26:12.743Z,7.50
2023-02-22T02:31:46.487Z,7.45
2023-02-22T02:37:27.860Z,7.44
2023-02-22T02:42:33.615Z,7.40
2023-02-22T02:47:34.700Z,7.33
2023-02-22T02:52:34.166Z,7.36
2023-02-22T02:57:30.596Z,7.43
2023-02-22T03:02:53.453Z,7.34
2023-02-22T03:07:58.856Z,7.40
2023-02-22T03:13:01.063Z,7.29
2023-02-22T03:18:06.677Z,7.27
2023-02-22T03:23:28.750Z,7.38
2023-02-22T03:28:28.702Z,7.33
2023-02-22T03:33:33.649Z,7.36
2023-02-22T03:38:33.618Z,7.15
2023-02-22T03:43:37.525Z,7.34
2023-02-22T03:48:45.097Z,7.33
2023-02-22T03:53:44.515Z,7.43
2023-02-22T03:58:47.836Z,7.41
2023-02-22T04:03:44.323Z,7.31
2023-02-22T04:08:40.787Z,7.33
2023-02-22T04:13:37.169Z,7.30
2023-02-22T04:18:33.596Z,7.35
2023-02-22T04:23:29.979Z,7.37
2023-02-22T04:28:26.364Z,7.27
2023-02-22T04:33:22.764Z,7.36
2023-02-22T04:38:19.276Z,7.26
2023-02-22T04:43:15.738Z,7.29
2023-02-22T04:48:12.165Z,7.34
2023-02-22T04:53:09.073Z,7.44
2023-02-22T04:58:05.509Z,7.52
2023-02-22T05:03:02.005Z,7.51
2023-02-22T05:07:58.590Z,7.49
2023-02-22T05:12:55.049Z,7.33
2023-02-22T05:17:52.393Z,7.38
2023-02-22T05:22:49.070Z,7.40
2023-02-22T05:27:45.621Z,7.45
2023-02-22T05:32:42.396Z,7.47
2023-02-22T05:37:39.582Z,7.52
2023-02-22T05:42:36.019Z,7.39
2023-02-22T05:47:32.411Z,7.51
2023-02-22T05:52:28.816Z,7.50
2023-02-22T05:57:25.240Z,7.50
2023-02-22T06:02:21.656Z,7.46
2023-02-22T06:07:18.148Z,7.48
2023-02-22T06:12:14.604Z,7.41
2023-02-22T06:17:11.563Z,7.50
2023-02-22T06:22:08.630Z,7.47
2023-02-22T06:27:05.005Z,7.52
2023-02-22T06:32:01.432Z,7.51
2023-02-22T06:36:59.940Z,7.57
2023-02-22T06:41:57.755Z,7.44
2023-02-22T06:46:54.256Z,7.51
2023-02-22T06:51:50.733Z,7.55
2023-02-22T06:56:47.232Z,7.52
2023-02-22T07:01:44.062Z,7.54
2023-02-22T07:06:45.910Z,7.59
2023-02-22T07:11:42.572Z,7.61
2023-02-22T07:16:39.139Z,7.57
2023-02-22T07:21:35.585Z,7.59
2023-02-22T07:26:39.428Z,7.65
2023-02-22T07:31:38.585Z,7.62
2023-02-22T07:36:34.986Z,7.56
2023-02-22T07:41:31.414Z,7.57
2023-02-22T07:46:27.831Z,7.63
2023-02-22T07:51:24.372Z,7.64
2023-02-22T07:56:20.817Z,7.64
2023-02-22T08:01:17.545Z,7.79
2023-02-22T08:06:14.170Z,7.79
2023-02-22T08:11:10.631Z,7.88
2023-02-22T08:16:07.093Z,7.97
2023-02-22T08:21:03.927Z,7.95
2023-02-22T08:26:08.610Z,8.04
2023-02-22T08:31:07.559Z,7.99
2023-02-22T08:36:04.333Z,8.16
2023-02-22T08:41:00.797Z,8.20
2023-02-22T08:45:57.927Z,8.35
2023-02-22T08:50:54.804Z,8.37
2023-02-22T08:55:51.217Z,8.25
2023-02-22T09:00:47.790Z,8.44
2023-02-22T09:05:44.684Z,8.45
2023-02-22T09:10:41.214Z,8.72
2023-02-22T09:15:39.563Z,8.89
2023-02-22T09:20:36.280Z,8.89
2023-02-22T09:25:34.201Z,8.77
2023-02-22T09:30:33.655Z,8.46
2023-02-22T09:35:30.098Z,8.38
2023-02-22T09:40:32.383Z,8.31
2023-02-22T09:45:36.733Z,8.36
2023-02-22T09:50:37.809Z,8.31
2023-02-22T09:55:51.173Z,8.26
2023-02-22T10:00:51.637Z,8.45
2023-02-22T10:06:09.863Z,8.39
2023-02-22T10:11:19.159Z,8.64
2023-02-22T10:16:48.168Z,8.75
2023-02-22T10:21:53.454Z,8.76
2023-02-22T10:26:50.910Z,8.76
2023-02-22T10:31:54.860Z,8.80
2023-02-22T10:36:59.122Z,9.08
2023-02-22T10:42:07.940Z,9.23
2023-02-22T10:47:08.543Z,9.23
2023-02-22T10:52:29.265Z,9.46
2023-02-22T10:57:32.934Z,10.58
2023-02-22T11:02:35.161Z,10.87
2023-02-22T11:07:34.910Z,10.58
2023-02-22T11:12:33.901Z,11.07
2023-02-22T11:17:33.899Z,11.22
2023-02-22T11:22:42.080Z,11.41
2023-02-22T11:27:43.917Z,11.95
2023-02-22T11:32:47.589Z,12.23
2023-02-22T11:37:44.089Z,12.18
2023-02-22T11:42:40.594Z,12.51
2023-02-22T11:48:00.463Z,12.92
2023-02-22T11:53:25.193Z,12.22
2023-02-22T11:58:24.565Z,13.12
2023-02-22T12:03:20.916Z,13.17
2023-02-22T12:08:45.701Z,12.60
2023-02-22T12:13:56.204Z,12.48
2023-02-22T12:19:26.559Z,12.03
2023-02-22T12:24:28.882Z,11.67
2023-02-22T12:29:33.808Z,11.71
2023-02-22T12:34:41.244Z,11.92
2023-02-22T12:39:54.067Z,11.94
2023-02-22T12:45:08.313Z,12.50
2023-02-22T12:50:28.868Z,12.45
2023-02-22T12:55:32.430Z,12.15
2023-02-22T13:00:46.332Z,11.91
2023-02-22T13:05:49.348Z,11.73
2023-02-22T13:10:57.688Z,11.90
2023-02-22T13:16:31.773Z,11.65
2023-02-22T13:21:46.268Z,11.65
2023-02-22T13:26:51.501Z,11.68
2023-02-22T13:32:27.384Z,11.83
2023-02-22T13:37:35.791Z,11.76
2023-02-22T13:43:03.784Z,11.61
2023-02-22T13:48:44.759Z,11.42
2023-02-22T13:53:43.676Z,11.33
2023-02-22T13:59:23.883Z,11.19
2023-02-22T14:04:37.128Z,11.19
2023-02-22T14:09:55.870Z,11.16
2023-02-22T14:15:28.580Z,11.06
2023-02-22T14:20:32.512Z,11.02
2023-02-22T14:25:40.346Z,10.98
2023-02-22T14:30:38.735Z,11.04
2023-02-22T14:35:49.484Z,11.03
2023-02-22T14:40:49.346Z,10.95
2023-02-22T14:45:51.845Z,10.95
2023-02-22T14:50:53.012Z,10.89
2023-02-22T14:56:03.853Z,10.73
2023-02-22T15:01:19.994Z,10.74
2023-02-22T15:06:20.189Z,10.56
2023-02-22T15:11:22.812Z,10.38
2023-02-22T15:16:20.624Z,10.44
2023-02-22T15:21:21.794Z,10.44
2023-02-22T15:26:31.237Z,10.33
2023-02-22T15:31:31.948Z,10.31
2023-02-22T15:36:32.419Z,10.18
2023-02-22T15:41:32.747Z,10.22
2023-02-22T15:46:29.799Z,10.23
2023-02-22T15:51:29.208Z,10.07
2023-02-22T15:56:29.937Z,10.01
2023-02-22T16:01:27.037Z,9.99
2023-02-22T16:06:40.013Z,9.90
2023-02-22T16:11:39.799Z,9.87
2023-02-22T16:16:41.485Z,9.81
2023-02-22T16:21:53.449Z,9.82
2023-02-22T16:27:06.977Z,9.79
2023-02-22T16:32:03.847Z,9.63
2023-02-22T16:37:01.199Z,9.58
2023-02-22T16:42:00.105Z,9.52
2023-02-22T16:46:58.935Z,9.50
2023-02-22T16:52:07.093Z,9.39
2023-02-22T16:57:05.097Z,9.37
2023-02-22T17:02:01.622Z,9.30
2023-02-22T17:06:58.980Z,9.17
2023-02-22T17:11:55.821Z,9.23
2023-02-22T17:16:52.230Z,9.17
2023-02-22T17:21:49.707Z,9.07
2023-02-22T17:26:46.440Z,9.10
2023-02-22T17:31:42.933Z,9.02
2023-02-22T17:36:39.377Z,9.00
2023-02-22T17:41:37.327Z,8.97
2023-02-22T17:46:37.480Z,8.90
2023-02-22T17:51:34.119Z,8.90
2023-02-22T17:56:30.541Z,8.88
2023-02-22T18:01:30.003Z,8.82
2023-02-22T18:06:28.531Z,8.81
2023-02-22T18:11:26.788Z,8.66
2023-02-22T18:16:25.687Z,8.74
2023-02-22T18:21:23.263Z,8.75
2023-02-22T18:26:21.231Z,8.67
2023-02-22T18:31:23.811Z,8.62
2023-02-22T18:36:22.544Z,8.61
2023-02-22T18:41:20.691Z,8.56
2023-02-22T18:46:20.269Z,8.46
2023-02-22T18:51:17.479Z,8.53
2023-02-22T18:56:21.326Z,8.52
2023-02-22T19:01:18.832Z,8.51
2023-02-22T19:06:18.092Z,8.48
2023-02-22T19:11:19.268Z,8.43
2023-02-22T19:16:20.047Z,8.33
2023-02-22T19:21:16.905Z,8.34
2023-02-22T19:26:19.217Z,8.34
2023-02-22T19:31:30.529Z,8.27
2023-02-22T19:36:27.008Z,8.29
2023-02-22T19:41:24.040Z,8.25
2023-02-22T19:46:21.251Z,8.09
2023-02-22T19:51:19.552Z,8.13
2023-02-22T19:56:18.770Z,8.00
2023-02-22T20:01:23.350Z,7.96
2023-02-22T20:06:21.311Z,7.99
2023-02-22T20:11:18.295Z,7.98
2023-02-22T20:16:17.614Z,8.00
2023-02-22T20:21:25.740Z,7.97
2023-02-22T20:26:24.030Z,7.95
2023-02-22T20:31:21.815Z,7.87
2023-02-22T20:36:22.035Z,7.76
2023-02-22T20:41:32.857Z,7.79
2023-02-22T20:46:35.491Z,7.75
2023-02-22T20:51:31.773Z,7.64
2023-02-22T20:56:30.080Z,7.68
2023-02-22T21:01:27.026Z,7.59
2023-02-22T21:06:24.009Z,7.60
2023-02-22T21:11:22.850Z,7.65
2023-02-22T21:16:25.634Z,7.64
2023-02-22T21:21:22.460Z,7.58
2023-02-22T21:26:25.202Z,7.57
2023-02-22T21:31:24.265Z,7.57
2023-02-22T21:36:25.157Z,7.52
2023-02-22T21:41:24.825Z,7.56
2023-02-22T21:46:22.527Z,7.54
2023-02-22T21:51:22.205Z,7.50
2023-02-22T21:56:24.334Z,7.43
2023-02-22T22:01:21.070Z,7.44
2023-02-22T22:06:17.633Z,7.49
2023-02-22T22:11:17.689Z,7.49
2023-02-22T22:16:16.626Z,7.50
2023-02-22T22:21:20.599Z,7.52
2023-02-22T22:26:19.866Z,7.45
2023-02-22T22:31:19.645Z,7.43
2023-02-22T22:36:18.210Z,7.43
2023-02-22T22:41:17.564Z,7.38
2023-02-22T22:46:16.773Z,7.36
2023-02-22T22:51:15.802Z,7.29
2023-02-22T22:56:16.267Z,7.24
2023-02-22T23:01:19.968Z,7.17
2023-02-22T23:06:16.556Z,7.15
2023-02-22T23:11:13.003Z,7.08
2023-02-22T23:16:11.925Z,7.05
2023-02-22T23:21:09.026Z,6.98
2023-02-22T23:26:18.631Z,6.94
2023-02-22T23:31:16.969Z,6.88
2023-02-22T23:36:15.133Z,6.87
2023-02-22T23:41:16.365Z,6.81
2023-02-22T23:46:18.459Z,6.72
2023-02-22T23:51:19.708Z,6.71
2023-02-22T23:56:20.846Z,6.71
